Airfield :
LOGIN :

Register | Disclaimer

   EN    FR    IT 

 










Legend :    VFR   Marginal VFR   IFR   Intensive IFR   Very Intensive IFR
Visi :
Ceiling :
>= 8 km
>= 3000ft
5 to 8 km
1000 to 3000 ft
1500m to 5 km
500 to 1000 ft
800 to 1500m
200 to 500 ft
< 800m
< 200 ft
Symbols :   Thunderstorms  Fog  Heavy snow  Heavy precipitations  Wind > 20 kt
SIGMETs :     Misc.  Thunderstorms  Icing  Turbulence  Mountain Waves  Volcanic Ashes






- Airport Elevation : 14 ft
- IATA code : BRE


EDDW - Bremen Neuenland

CURRENT METAR :
  • 061950Z AUTO 11005KT 6000 NCD 01/M00 Q1041 TEMPO 2500 BCFG

EXPIRED METARs :
  • 061920Z AUTO 07002KT 4000 0550 R09/P2000N BCFG NCD 01/01 Q1041 TEMPO 2500 BCFG
  • 061850Z AUTO 07004KT 9000 NCD 02/01 Q1041 NOSIG
  • 061820Z AUTO 07004KT CAVOK 02/01 Q1041 NOSIG
  • 061750Z AUTO 08004KT CAVOK 03/01 Q1041 NOSIG
  • 061720Z AUTO 07003KT CAVOK 03/01 Q1040 NOSIG
  • 061650Z AUTO 05003KT CAVOK 03/01 Q1040 NOSIG

TAF TAF EDDW
Valid from the 06 at 18:00 until the 07 at 18:00 UTC


061700Z 0618/0718 VRB03KT CAVOK
TEMPO 0619/0710 1800 BCFG
PROB40
TEMPO 0622/0709 0500 FZFG VV001



MET'MAP, your aeronautical weather chart ! - Copyright ORBIFLY December 2007 - Disclaimer

ORBIFLY MET'MAP TEAM :

Programming & Development : Alexandra Zaïnal
Original concept : Baudouin d'Aumeries
Technical & hardware support : Manuel Goepfert
Assistance : Marc-Olivier Méhu




SOURCES & CREDITS :

   NOAA